Time;durP1;ratioP1;P1;durP2;ratioP2;P2;SDS_P1;SDS_P2;PMS_P1;PMS_P2;Temp;Humidity;BMP_temperature;BMP_pressure;BME280_temperature;BME280_humidity;BME280_pressure;Samples;Min_cycle;Max_cycle;Signal;HPM_P1;HPM_P2
2023/05/05 00:00:01;;;;;;;5.65;4.95;;;16.80;87.30;;;;;;5036895;28;20057;-93
2023/05/05 00:02:26;;;;;;;6.43;5.03;;;16.90;87.50;;;;;;5019489;28;20134;-91
2023/05/05 00:04:52;;;;;;;6.93;5.07;;;16.80;87.70;;;;;;5003135;28;20033;-92
2023/05/05 00:07:18;;;;;;;6.25;5.30;;;16.80;87.90;;;;;;4999924;28;20026;-93
2023/05/05 00:09:44;;;;;;;6.90;4.60;;;16.80;88.00;;;;;;4999600;28;20117;-93
2023/05/05 00:12:09;;;;;;;5.85;5.10;;;16.80;88.10;;;;;;5000137;28;20060;-92
2023/05/05 00:14:35;;;;;;;7.28;5.20;;;16.70;88.20;;;;;;5016595;28;20029;-91
2023/05/05 00:17:01;;;;;;;5.70;5.10;;;16.70;88.40;;;;;;5006889;28;20112;-92
2023/05/05 00:19:26;;;;;;;7.65;4.80;;;16.70;88.60;;;;;;5026097;28;20041;-93
2023/05/05 00:21:52;;;;;;;7.65;5.47;;;16.70;88.70;;;;;;5007331;28;20104;-92
2023/05/05 00:24:18;;;;;;;7.88;5.03;;;16.70;89.00;;;;;;4986700;28;20022;-91
2023/05/05 00:26:44;;;;;;;8.65;5.47;;;16.70;89.20;;;;;;5002348;28;20056;-91
2023/05/05 00:29:10;;;;;;;6.38;5.22;;;16.60;89.30;;;;;;5032985;28;20105;-92
2023/05/05 00:31:36;;;;;;;7.70;5.35;;;16.60;89.50;;;;;;5022437;28;20021;-92
2023/05/05 00:34:02;;;;;;;6.68;5.50;;;16.60;89.70;;;;;;5041688;28;20043;-92
2023/05/05 00:36:30;;;;;;;6.20;5.60;;;16.60;89.90;;;;;;5024848;28;20061;-90
2023/05/05 00:38:56;;;;;;;7.88;5.50;;;16.60;90.10;;;;;;5036127;28;20022;-91
2023/05/05 00:41:22;;;;;;;6.78;5.53;;;16.60;90.20;;;;;;5039710;28;20052;-93
2023/05/05 00:43:47;;;;;;;10.35;6.10;;;16.50;90.30;;;;;;5038334;28;20045;-92
2023/05/05 00:46:23;;;;;;;6.65;5.68;;;16.50;90.50;;;;;;5020145;28;20043;-91
2023/05/05 00:48:52;;;;;;;7.28;5.78;;;16.50;90.70;;;;;;5030243;28;20060;-91
2023/05/05 00:51:22;;;;;;;8.50;6.10;;;16.50;90.70;;;;;;5009484;28;20022;-91
2023/05/05 00:53:48;;;;;;;8.98;5.72;;;16.40;90.80;;;;;;5004140;28;20049;-91
2023/05/05 00:56:20;;;;;;;8.10;6.20;;;16.40;90.90;;;;;;4999172;28;20026;-92
2023/05/05 00:58:46;;;;;;;8.75;6.03;;;16.30;91.00;;;;;;4998843;28;20026;-91
2023/05/05 01:01:14;;;;;;;6.68;5.78;;;16.30;91.10;;;;;;5021151;28;20030;-91
2023/05/05 01:03:40;;;;;;;7.60;5.60;;;16.30;91.20;;;;;;5018695;28;20137;-92
2023/05/05 01:06:27;;;;;;;8.95;6.43;;;16.20;91.30;;;;;;5018036;28;20368;-91
2023/05/05 01:09:04;;;;;;;7.70;5.80;;;16.20;91.40;;;;;;5035861;28;20112;-91
2023/05/05 01:11:33;;;;;;;6.55;5.60;;;16.20;91.50;;;;;;5018460;28;20031;-91
2023/05/05 01:14:39;;;;;;;8.57;5.80;;;16.20;91.60;;;;;;5035134;28;20022;-92
2023/05/05 01:17:22;;;;;;;7.38;6.43;;;16.20;91.70;;;;;;4943468;29;20027;-91
2023/05/05 01:20:06;;;;;;;7.03;6.32;;;16.20;91.80;;;;;;4940688;29;20032;-87
2023/05/05 01:22:44;;;;;;;7.13;6.43;;;16.10;91.80;;;;;;4992732;28;20433;-91
2023/05/05 01:25:49;;;;;;;6.63;5.95;;;16.20;91.90;;;;;;5003854;28;20113;-91
2023/05/05 01:28:48;;;;;;;6.80;6.05;;;16.10;91.90;;;;;;4994384;28;20034;-92
2023/05/05 01:31:34;;;;;;;9.13;6.60;;;16.10;92.00;;;;;;4995183;28;20490;-93
2023/05/05 01:34:07;;;;;;;7.88;6.88;;;16.10;92.00;;;;;;4994949;28;20026;-92
2023/05/05 01:36:41;;;;;;;8.80;6.30;;;16.10;92.00;;;;;;4979294;28;20030;-93
2023/05/05 01:39:11;;;;;;;9.63;6.93;;;16.20;92.00;;;;;;5017668;28;20093;-91
2023/05/05 01:42:01;;;;;;;10.23;7.95;;;16.20;92.10;;;;;;5018172;28;20462;-91
2023/05/05 01:44:28;;;;;;;8.77;7.43;;;16.20;92.10;;;;;;5018362;28;20461;-93
2023/05/05 01:46:57;;;;;;;9.00;7.38;;;16.30;92.10;;;;;;5006223;28;20281;-95
2023/05/05 01:49:24;;;;;;;8.52;7.70;;;16.30;92.10;;;;;;4994968;28;20132;-93
2023/05/05 01:51:51;;;;;;;10.95;7.57;;;16.20;92.20;;;;;;4978714;28;20022;-93
2023/05/05 01:54:18;;;;;;;9.60;8.50;;;16.30;92.30;;;;;;4995062;28;20520;-91
2023/05/05 01:56:46;;;;;;;11.65;9.05;;;16.30;92.40;;;;;;4998156;28;20030;-93
2023/05/05 01:59:12;;;;;;;9.40;8.40;;;16.30;92.50;;;;;;4997761;28;20069;-92
2023/05/05 02:01:43;;;;;;;11.75;9.02;;;16.30;92.60;;;;;;4998533;28;20470;-92
2023/05/05 02:04:09;;;;;;;;;;;16.30;92.60;;;;;;5015663;28;20028;-92
2023/05/05 02:06:38;;;;;;;11.52;8.82;;;16.30;92.70;;;;;;4999434;28;19909;-92
2023/05/05 02:09:05;;;;;;;11.35;9.52;;;16.40;92.80;;;;;;5002393;28;20021;-93
2023/05/05 02:11:33;;;;;;;11.18;9.60;;;16.30;92.90;;;;;;4985297;28;20034;-91
2023/05/05 02:14:00;;;;;;;11.60;9.23;;;16.40;92.90;;;;;;4966411;28;20459;-93
2023/05/05 02:16:26;;;;;;;11.10;9.30;;;16.40;93.10;;;;;;5025389;28;20049;-91
2023/05/05 02:18:53;;;;;;;11.55;9.55;;;16.40;93.10;;;;;;5022558;28;20022;-91
2023/05/05 02:21:19;;;;;;;11.98;10.18;;;16.40;93.20;;;;;;5023748;28;20029;-92
2023/05/05 02:23:50;;;;;;;11.18;9.98;;;16.50;93.30;;;;;;5035068;28;20013;-92
2023/05/05 02:26:19;;;;;;;12.80;10.02;;;16.50;93.40;;;;;;5024022;28;20045;-92
2023/05/05 02:28:57;;;;;;;11.70;10.45;;;16.50;93.50;;;;;;5000561;28;20018;-91
2023/05/05 02:31:25;;;;;;;12.50;10.23;;;16.40;93.60;;;;;;5031290;28;20026;-92
2023/05/05 02:33:54;;;;;;;12.15;10.85;;;16.40;93.70;;;;;;5018117;28;20190;-90
2023/05/05 02:36:24;;;;;;;12.65;11.15;;;16.40;93.80;;;;;;4995583;28;20081;-91
2023/05/05 02:38:56;;;;;;;11.60;10.45;;;16.40;93.90;;;;;;5027127;28;20017;-92
2023/05/05 02:41:26;;;;;;;11.63;10.27;;;16.30;94.00;;;;;;5009717;28;20053;-91
2023/05/05 02:43:58;;;;;;;13.57;10.85;;;16.30;94.10;;;;;;5008651;28;20358;-91
2023/05/05 02:46:24;;;;;;;14.13;11.55;;;16.20;94.30;;;;;;5002457;28;20025;-91
2023/05/05 02:48:53;;;;;;;12.45;10.85;;;16.20;94.40;;;;;;5016902;28;20035;-92
2023/05/05 02:51:18;;;;;;;13.80;11.68;;;16.10;94.50;;;;;;5028964;28;20018;-91
2023/05/05 02:53:44;;;;;;;13.52;11.45;;;16.10;94.60;;;;;;4996980;28;20088;-91
2023/05/05 02:56:37;;;;;;;12.80;10.93;;;16.00;94.70;;;;;;4975483;28;20125;-90
2023/05/05 02:59:32;;;;;;;12.93;11.35;;;16.00;94.80;;;;;;4987612;28;20053;-91
2023/05/05 03:02:07;;;;;;;12.82;11.35;;;15.90;94.90;;;;;;4981624;28;20506;-90
2023/05/05 03:04:44;;;;;;;13.75;12.23;;;15.90;95.00;;;;;;4997211;28;20033;-93
2023/05/05 03:07:27;;;;;;;12.90;11.57;;;15.90;95.10;;;;;;4997006;28;20480;-92
2023/05/05 03:10:04;;;;;;;13.68;11.68;;;15.90;95.20;;;;;;4997361;28;20034;-90
2023/05/05 03:12:37;;;;;;;13.30;11.80;;;15.80;95.20;;;;;;5015015;28;20022;-90
2023/05/05 03:15:04;;;;;;;14.00;11.23;;;15.80;95.40;;;;;;5016668;28;20061;-87
2023/05/05 03:17:31;;;;;;;13.13;11.63;;;15.70;95.40;;;;;;5000659;28;20096;-92
2023/05/05 03:19:57;;;;;;;14.52;12.15;;;15.70;95.50;;;;;;5016406;28;20076;-92
2023/05/05 03:22:23;;;;;;;14.00;12.52;;;15.70;95.60;;;;;;4998947;28;20029;-91
2023/05/05 03:24:50;;;;;;;14.25;12.75;;;15.60;95.70;;;;;;4964682;28;20032;-91
2023/05/05 03:27:16;;;;;;;14.75;13.25;;;15.60;95.80;;;;;;4993840;28;20029;-91
2023/05/05 03:29:42;;;;;;;13.80;12.20;;;15.60;95.80;;;;;;4967555;28;20038;-90
2023/05/05 03:32:07;;;;;;;14.98;12.95;;;15.50;95.90;;;;;;4999153;28;20025;-92
2023/05/05 03:34:36;;;;;;;15.15;12.63;;;15.50;96.00;;;;;;5000657;28;20061;-92
2023/05/05 03:37:01;;;;;;;15.48;13.35;;;15.50;96.10;;;;;;5002803;28;20036;-92
2023/05/05 03:39:27;;;;;;;14.95;12.80;;;15.40;96.10;;;;;;5004051;28;20151;-92
2023/05/05 03:41:53;;;;;;;15.38;13.48;;;15.40;96.20;;;;;;5009571;28;20538;-90
2023/05/05 03:44:19;;;;;;;16.05;14.10;;;15.40;96.30;;;;;;4968348;28;20030;-91
2023/05/05 03:46:44;;;;;;;16.20;13.85;;;15.30;96.30;;;;;;4984712;28;20033;-91
2023/05/05 03:49:12;;;;;;;14.13;12.63;;;15.30;96.50;;;;;;5001138;28;20034;-91
2023/05/05 03:51:38;;;;;;;14.82;13.32;;;15.20;96.50;;;;;;4993273;28;20031;-92
2023/05/05 03:54:04;;;;;;;15.70;13.40;;;15.20;96.60;;;;;;5001007;28;20100;-92
2023/05/05 03:56:30;;;;;;;18.02;14.18;;;15.20;96.70;;;;;;5010855;28;20034;-91
2023/05/05 03:58:55;;;;;;;15.07;13.48;;;15.20;96.70;;;;;;4990322;28;20125;-91
2023/05/05 04:01:22;;;;;;;15.65;13.90;;;15.10;96.80;;;;;;5008055;28;20035;-91
2023/05/05 04:03:48;;;;;;;16.30;14.05;;;15.10;96.90;;;;;;4983013;28;20019;-87
2023/05/05 04:06:13;;;;;;;14.98;13.40;;;15.10;97.00;;;;;;4987761;28;20014;-89
2023/05/05 04:08:39;;;;;;;15.68;13.70;;;15.10;97.10;;;;;;5028767;28;20018;-93
2023/05/05 04:11:05;;;;;;;16.45;12.93;;;15.10;97.10;;;;;;5022379;28;20086;-93
2023/05/05 04:13:31;;;;;;;15.95;14.07;;;15.10;97.20;;;;;;5023695;28;20045;-93
2023/05/05 04:15:58;;;;;;;14.35;12.85;;;15.10;97.30;;;;;;5037379;28;20028;-91
2023/05/05 04:18:24;;;;;;;15.63;12.93;;;15.20;97.40;;;;;;5015496;28;20026;-94
2023/05/05 04:20:50;;;;;;;13.32;11.88;;;15.20;97.50;;;;;;5000019;28;20061;-92
2023/05/05 04:23:16;;;;;;;14.77;12.27;;;15.10;97.50;;;;;;4983065;28;20025;-92
2023/05/05 04:25:41;;;;;;;13.27;11.85;;;15.10;97.60;;;;;;4983748;28;20033;-92
2023/05/05 04:28:07;;;;;;;12.65;11.35;;;15.10;97.70;;;;;;4999441;28;20092;-93
2023/05/05 04:30:33;;;;;;;14.15;12.65;;;15.10;97.80;;;;;;4999083;28;20038;-92
2023/05/05 04:32:58;;;;;;;12.43;11.10;;;15.00;97.80;;;;;;4988021;28;20025;-91
2023/05/05 04:35:24;;;;;;;12.95;11.50;;;15.00;97.90;;;;;;5018868;28;20026;-92
2023/05/05 04:37:52;;;;;;;13.57;11.95;;;15.00;98.00;;;;;;5036597;28;20025;-93
2023/05/05 04:40:18;;;;;;;12.23;10.93;;;14.90;98.10;;;;;;5032973;28;20025;-92
2023/05/05 04:42:43;;;;;;;14.07;11.73;;;14.90;98.20;;;;;;4974612;28;20046;-92
2023/05/05 04:45:09;;;;;;;13.57;12.07;;;14.90;98.30;;;;;;5030100;28;20029;-90
2023/05/05 04:47:51;;;;;;;12.98;11.13;;;14.90;98.30;;;;;;5018785;28;20021;-93
2023/05/05 04:50:16;;;;;;;12.95;11.27;;;14.90;98.50;;;;;;4992976;28;20029;-93
2023/05/05 04:52:45;;;;;;;14.10;11.32;;;14.90;98.50;;;;;;4988652;28;20390;-92
2023/05/05 04:55:11;;;;;;;14.32;11.57;;;14.90;98.60;;;;;;5014087;28;20046;-93
2023/05/05 04:57:37;;;;;;;13.18;10.80;;;14.90;98.60;;;;;;4994622;28;20482;-93
2023/05/05 05:00:04;;;;;;;12.18;10.73;;;14.90;98.70;;;;;;4996295;28;20093;-95
2023/05/05 05:02:30;;;;;;;13.02;10.80;;;14.90;98.80;;;;;;4981070;28;20049;-92
2023/05/05 05:04:57;;;;;;;10.77;9.63;;;14.90;98.80;;;;;;4999320;28;20018;-92
2023/05/05 05:07:25;;;;;;;10.27;9.00;;;14.90;98.90;;;;;;5015677;28;20026;-92
2023/05/05 05:09:56;;;;;;;12.45;9.25;;;14.90;99.00;;;;;;4989537;28;20466;-93
2023/05/05 05:12:22;;;;;;;;;;;15.00;99.00;;;;;;4986807;28;20041;-93
2023/05/05 05:14:48;;;;;;;9.55;8.52;;;15.00;99.00;;;;;;5011563;28;19910;-92
2023/05/05 05:17:14;;;;;;;9.25;8.25;;;14.90;99.00;;;;;;5007539;28;20487;-92
2023/05/05 05:19:39;;;;;;;10.77;8.02;;;14.90;99.10;;;;;;5002972;28;20033;-92
2023/05/05 05:22:08;;;;;;;9.18;8.18;;;14.90;99.10;;;;;;5009822;28;20025;-93
2023/05/05 05:24:36;;;;;;;8.00;7.20;;;15.00;99.30;;;;;;4978435;28;20019;-93
2023/05/05 05:27:07;;;;;;;7.68;6.88;;;15.00;99.30;;;;;;4984007;28;20026;-93
2023/05/05 05:29:33;;;;;;;7.00;6.30;;;15.00;99.40;;;;;;4979189;28;20065;-92
2023/05/05 05:31:59;;;;;;;7.63;6.32;;;15.00;99.40;;;;;;4980381;28;20058;-93
2023/05/05 05:34:25;;;;;;;7.75;6.18;;;15.00;99.40;;;;;;4980764;28;20176;-94
2023/05/05 05:36:51;;;;;;;6.65;5.93;;;15.10;99.50;;;;;;4997255;28;20022;-94
2023/05/05 05:39:17;;;;;;;6.45;5.38;;;15.10;99.50;;;;;;4998260;28;20120;-93
2023/05/05 05:41:42;;;;;;;5.95;5.35;;;15.10;99.50;;;;;;4999513;28;20470;-94
2023/05/05 05:44:08;;;;;;;6.60;4.53;;;15.10;99.50;;;;;;5011935;28;20057;-93
2023/05/05 05:46:34;;;;;;;6.50;5.07;;;15.20;99.60;;;;;;4992136;28;20030;-94
2023/05/05 05:48:59;;;;;;;5.03;4.25;;;15.20;99.60;;;;;;5015019;28;20038;-93
2023/05/05 05:51:30;;;;;;;6.10;4.82;;;15.20;99.60;;;;;;4999296;28;20027;-91
2023/05/05 05:54:01;;;;;;;8.00;4.68;;;15.30;99.60;;;;;;4995107;28;20054;-92
2023/05/05 05:56:30;;;;;;;6.40;4.53;;;15.30;99.60;;;;;;4991974;28;20038;-94
2023/05/05 05:59:07;;;;;;;4.95;4.18;;;15.30;99.60;;;;;;5014044;28;20082;-93
2023/05/05 06:01:46;;;;;;;;;;;;;;;;;;;;;
2023/05/05 06:04:12;;;;;;;4.90;3.90;;;15.40;99.60;;;;;;5015789;28;20030;-93
2023/05/05 06:06:38;;;;;;;6.60;4.78;;;15.40;99.60;;;;;;4997880;28;20117;-93
2023/05/05 06:09:04;;;;;;;5.88;4.28;;;15.40;99.60;;;;;;5014993;28;20466;-96
2023/05/05 06:11:30;;;;;;;5.88;4.40;;;15.50;99.70;;;;;;4997511;28;20026;-94
2023/05/05 06:13:56;;;;;;;6.40;4.35;;;15.50;99.80;;;;;;4997637;28;20049;-93
2023/05/05 06:16:21;;;;;;;5.78;3.78;;;15.50;99.80;;;;;;5014631;28;20109;-93
2023/05/05 06:18:55;;;;;;;5.18;4.10;;;15.50;99.80;;;;;;4978166;28;20037;-93
2023/05/05 06:21:21;;;;;;;6.70;4.68;;;15.60;99.90;;;;;;4995877;28;20452;-93
2023/05/05 06:23:51;;;;;;;5.30;4.60;;;15.60;99.90;;;;;;4978397;28;20503;-92
2023/05/05 06:26:20;;;;;;;6.57;4.80;;;15.60;99.90;;;;;;4965527;28;20478;-94
2023/05/05 06:28:51;;;;;;;5.45;4.60;;;15.70;99.90;;;;;;4997348;28;20034;-94
2023/05/05 06:31:17;;;;;;;;;;;15.70;99.90;;;;;;5014903;28;20033;-95
2023/05/05 06:33:45;;;;;;;7.43;4.95;;;15.80;99.90;;;;;;4997396;28;19906;-94
2023/05/05 06:36:16;;;;;;;5.93;4.80;;;15.80;99.90;;;;;;4998025;28;20029;-96
2023/05/05 06:38:44;;;;;;;6.72;5.03;;;15.80;99.90;;;;;;4981896;28;20057;-95
2023/05/05 06:41:15;;;;;;;6.68;5.07;;;15.90;99.90;;;;;;5015043;28;20471;-94
2023/05/05 06:43:46;;;;;;;7.70;4.90;;;15.90;99.90;;;;;;5001025;28;20461;-94
2023/05/05 06:46:17;;;;;;;8.25;4.95;;;16.00;99.90;;;;;;5017245;28;20079;-93
2023/05/05 06:48:45;;;;;;;;;;;16.10;99.90;;;;;;5001115;28;20034;-94
2023/05/05 06:51:14;;;;;;;7.70;5.25;;;16.10;99.90;;;;;;5017360;28;19912;-93
2023/05/05 06:53:40;;;;;;;7.15;5.72;;;16.20;99.90;;;;;;5016413;28;20049;-93
2023/05/05 06:56:08;;;;;;;11.48;6.43;;;16.30;99.90;;;;;;5017142;28;20076;-94
2023/05/05 06:58:40;;;;;;;7.57;6.28;;;16.40;99.90;;;;;;5000456;28;20057;-94
2023/05/05 07:01:08;;;;;;;8.63;6.10;;;16.40;99.90;;;;;;5000751;28;20038;-93
2023/05/05 07:03:34;;;;;;;7.72;6.00;;;16.50;99.90;;;;;;5002531;28;20421;-92
2023/05/05 07:06:02;;;;;;;9.18;6.25;;;16.60;99.90;;;;;;4978117;28;20471;-94
2023/05/05 07:08:28;;;;;;;9.68;6.80;;;16.60;99.90;;;;;;4992745;28;20033;-93
2023/05/05 07:10:54;;;;;;;8.73;7.35;;;16.70;99.90;;;;;;4982203;28;20030;-96
2023/05/05 07:13:20;;;;;;;10.50;7.60;;;16.70;99.90;;;;;;5002427;28;20022;-95
2023/05/05 07:15:48;;;;;;;10.07;8.32;;;16.80;99.90;;;;;;5016435;28;20101;-93
2023/05/05 07:18:15;;;;;;;7.93;6.97;;;16.80;99.90;;;;;;5022009;28;20025;-95
2023/05/05 07:20:42;;;;;;;11.05;8.15;;;16.90;99.90;;;;;;5006173;28;20369;-93
2023/05/05 07:23:10;;;;;;;8.93;7.68;;;17.00;99.90;;;;;;5002797;28;20113;-93
2023/05/05 07:25:37;;;;;;;9.60;7.38;;;17.00;99.90;;;;;;5002980;28;20030;-93
2023/05/05 07:28:03;;;;;;;9.80;7.05;;;17.10;99.90;;;;;;5004451;28;20132;-94
2023/05/05 07:30:29;;;;;;;11.95;7.03;;;17.20;99.90;;;;;;5009075;28;20034;-93
2023/05/05 07:32:57;;;;;;;8.70;6.97;;;17.20;99.90;;;;;;5014310;28;20022;-91
2023/05/05 07:35:30;;;;;;;10.07;7.40;;;17.30;99.90;;;;;;5036664;28;20022;-94
2023/05/05 07:38:00;;;;;;;11.50;8.05;;;17.30;99.90;;;;;;5034927;28;20438;-94
2023/05/05 07:40:30;;;;;;;9.90;7.57;;;17.40;99.90;;;;;;5033332;28;20061;-95
2023/05/05 07:42:58;;;;;;;9.55;7.07;;;17.40;99.90;;;;;;5012599;28;20049;-93
2023/05/05 07:45:24;;;;;;;9.82;7.47;;;17.50;99.90;;;;;;5002625;28;20022;-93
2023/05/05 07:47:54;;;;;;;8.65;7.03;;;17.50;99.90;;;;;;5001080;28;20390;-95
2023/05/05 07:50:21;;;;;;;11.85;7.50;;;17.60;99.90;;;;;;5000796;28;20026;-94
2023/05/05 07:52:47;;;;;;;10.18;7.45;;;17.60;99.90;;;;;;5000041;28;20030;-93
2023/05/05 07:55:12;;;;;;;8.63;6.70;;;17.70;99.90;;;;;;5017330;28;20050;-94
2023/05/05 07:57:38;;;;;;;7.63;6.78;;;17.80;99.90;;;;;;5000092;28;20022;-94
2023/05/05 08:00:05;;;;;;;8.18;6.75;;;17.80;99.90;;;;;;4999909;28;20485;-94
2023/05/05 08:02:34;;;;;;;8.40;6.53;;;17.90;99.90;;;;;;5008682;28;20452;-94
2023/05/05 08:05:01;;;;;;;8.32;6.55;;;18.00;99.90;;;;;;5019804;28;20025;-95
2023/05/05 08:07:27;;;;;;;10.98;7.45;;;18.00;99.90;;;;;;5019903;28;20474;-94
2023/05/05 08:09:56;;;;;;;8.90;7.47;;;18.10;99.90;;;;;;5019579;28;20029;-92
2023/05/05 08:12:21;;;;;;;9.05;7.35;;;18.20;99.90;;;;;;4988163;28;20026;-93
2023/05/05 08:14:50;;;;;;;10.02;6.22;;;18.20;99.90;;;;;;5016296;28;20076;-93
2023/05/05 08:17:18;;;;;;;8.75;6.40;;;18.30;99.90;;;;;;4999999;28;20060;-92
2023/05/05 08:19:44;;;;;;;9.70;6.10;;;18.40;99.70;;;;;;5011872;28;20030;-94
2023/05/05 08:22:16;;;;;;;8.55;6.78;;;18.40;99.60;;;;;;4997472;28;20565;-94
2023/05/05 08:24:48;;;;;;;8.70;6.22;;;18.40;99.50;;;;;;4982412;28;20026;-94
2023/05/05 08:27:19;;;;;;;9.40;6.25;;;18.50;99.50;;;;;;4997553;28;20018;-92
2023/05/05 08:29:53;;;;;;;8.23;6.25;;;18.60;99.70;;;;;;4981287;28;20038;-93
2023/05/05 08:32:19;;;;;;;7.13;4.95;;;18.60;99.60;;;;;;5016104;28;20029;-90
2023/05/05 08:34:45;;;;;;;5.80;4.97;;;18.70;99.30;;;;;;5017074;28;20018;-92
2023/05/05 08:37:13;;;;;;;5.72;4.70;;;18.70;99.20;;;;;;4999155;28;20493;-93
2023/05/05 08:39:39;;;;;;;8.93;5.10;;;18.80;99.00;;;;;;4983571;28;20469;-92
2023/05/05 08:42:07;;;;;;;7.72;5.00;;;18.80;98.80;;;;;;4999420;28;20022;-94
2023/05/05 08:44:33;;;;;;;7.65;4.85;;;18.90;98.80;;;;;;4976808;28;20036;-93
2023/05/05 08:47:00;;;;;;;7.15;4.95;;;18.90;98.70;;;;;;4995428;28;20117;-91
2023/05/05 08:49:33;;;;;;;6.88;5.82;;;19.00;98.60;;;;;;5015634;28;20445;-93
2023/05/05 08:52:03;;;;;;;7.78;5.88;;;19.00;98.50;;;;;;4992850;28;20542;-94
2023/05/05 08:54:53;;;;;;;7.47;5.45;;;19.10;98.40;;;;;;4982533;28;20137;-94
2023/05/05 08:57:27;;;;;;;7.50;5.72;;;19.20;98.30;;;;;;4980217;28;20458;-93
2023/05/05 08:59:59;;;;;;;7.47;5.07;;;19.20;98.20;;;;;;4979951;28;20045;-95
2023/05/05 09:02:29;;;;;;;6.05;4.50;;;19.30;98.10;;;;;;4997924;28;20057;-95
2023/05/05 09:05:10;;;;;;;5.45;3.75;;;19.40;98.00;;;;;;4965653;28;20027;-95
2023/05/05 09:07:56;;;;;;;4.63;3.60;;;19.40;97.80;;;;;;4980400;28;20110;-94
2023/05/05 09:10:28;;;;;;;4.88;3.20;;;19.50;97.70;;;;;;5017956;28;20049;-94
2023/05/05 09:12:56;;;;;;;3.72;2.90;;;19.50;97.50;;;;;;5001783;28;20034;-94
2023/05/05 09:15:22;;;;;;;4.75;2.95;;;19.60;97.30;;;;;;5005002;28;20058;-94
2023/05/05 09:17:51;;;;;;;5.15;3.10;;;19.60;97.10;;;;;;5020997;28;20088;-95
2023/05/05 09:20:19;;;;;;;4.15;3.33;;;19.70;97.10;;;;;;5009771;28;20088;-95
2023/05/05 09:22:48;;;;;;;4.40;3.70;;;19.80;97.00;;;;;;5015947;28;20029;-94
2023/05/05 09:25:26;;;;;;;5.03;3.20;;;19.80;97.00;;;;;;5018210;28;20060;-94
2023/05/05 09:27:53;;;;;;;4.60;3.60;;;19.90;97.00;;;;;;5012684;28;20030;-93
2023/05/05 09:30:24;;;;;;;4.63;4.05;;;19.90;97.00;;;;;;5008516;28;20060;-94
2023/05/05 09:33:01;;;;;;;6.22;4.10;;;20.00;97.20;;;;;;4989379;28;20030;-94
2023/05/05 09:35:27;;;;;;;5.80;3.47;;;20.00;96.80;;;;;;4997478;28;20026;-95
2023/05/05 09:37:57;;;;;;;4.60;3.33;;;20.10;96.70;;;;;;4998912;28;20026;-93
2023/05/05 09:40:32;;;;;;;3.80;2.78;;;20.20;96.50;;;;;;5005091;28;20034;-95
2023/05/05 09:43:01;;;;;;;3.50;2.70;;;20.30;96.40;;;;;;4979608;28;20394;-96
2023/05/05 09:45:30;;;;;;;3.53;2.75;;;20.30;96.20;;;;;;5005784;28;20033;-95
2023/05/05 09:47:58;;;;;;;4.72;2.97;;;20.40;96.10;;;;;;4998656;28;20026;-94
2023/05/05 09:50:23;;;;;;;4.25;2.97;;;20.40;96.00;;;;;;5014592;28;20022;-95
2023/05/05 09:52:56;;;;;;;4.20;2.80;;;20.50;95.80;;;;;;4998203;28;20021;-96
2023/05/05 09:55:23;;;;;;;4.30;2.78;;;20.50;95.70;;;;;;4998367;28;20056;-95
2023/05/05 09:57:49;;;;;;;4.40;2.75;;;20.50;95.70;;;;;;4999050;28;20032;-96
2023/05/05 10:00:15;;;;;;;3.30;2.53;;;20.60;95.60;;;;;;4998049;28;20452;-95
2023/05/05 10:02:46;;;;;;;5.00;2.50;;;20.60;95.50;;;;;;4980612;28;20512;-93
2023/05/05 10:05:17;;;;;;;3.10;2.70;;;20.60;95.40;;;;;;4990438;28;20029;-93
2023/05/05 10:07:45;;;;;;;3.45;2.42;;;20.70;95.30;;;;;;5009417;28;20091;-93
2023/05/05 10:10:15;;;;;;;4.15;2.30;;;20.70;95.20;;;;;;4997941;28;20033;-93
2023/05/05 10:12:45;;;;;;;3.70;2.70;;;20.70;95.20;;;;;;5007478;28;20025;-92
2023/05/05 10:15:14;;;;;;;3.42;3.13;;;20.80;95.10;;;;;;5017513;28;20767;-93
2023/05/05 10:17:50;;;;;;;5.90;3.30;;;20.80;94.90;;;;;;5017181;28;20108;-95
2023/05/05 10:20:28;;;;;;;3.58;2.88;;;20.80;95.20;;;;;;5030737;28;20026;-94
2023/05/05 10:22:58;;;;;;;4.32;2.95;;;20.80;95.00;;;;;;5011638;28;20033;-93
2023/05/05 10:25:32;;;;;;;3.42;3.13;;;20.80;94.90;;;;;;4997918;28;20014;-92
2023/05/05 10:28:02;;;;;;;3.92;3.25;;;20.80;94.90;;;;;;4998161;28;20083;-93
2023/05/05 10:30:29;;;;;;;;;;;20.80;94.80;;;;;;4979287;28;20030;-93
2023/05/05 10:33:29;;;;;;;3.72;2.90;;;20.80;94.80;;;;;;4986446;28;20417;-94
2023/05/05 10:36:00;;;;;;;3.63;2.95;;;20.80;94.90;;;;;;4997978;28;20529;-93
2023/05/05 10:38:30;;;;;;;3.42;2.45;;;20.80;94.80;;;;;;4997116;28;20489;-93
2023/05/05 10:40:58;;;;;;;4.83;3.07;;;20.80;94.80;;;;;;4978428;28;20049;-93
2023/05/05 10:43:24;;;;;;;5.03;3.33;;;20.80;94.80;;;;;;4997055;28;20369;-93
2023/05/05 10:45:50;;;;;;;3.97;2.38;;;20.80;94.80;;;;;;4999662;28;20022;-94
2023/05/05 10:48:41;;;;;;;4.47;2.05;;;20.80;94.80;;;;;;5001979;28;20112;-92
2023/05/05 10:51:30;;;;;;;3.60;2.33;;;20.80;94.60;;;;;;4998329;28;20042;-96
2023/05/05 10:54:02;;;;;;;3.15;1.65;;;20.80;94.60;;;;;;5016924;28;20462;-93
2023/05/05 10:56:31;;;;;;;3.53;1.55;;;20.80;94.50;;;;;;5001280;28;20030;-93
2023/05/05 10:58:57;;;;;;;2.08;1.42;;;20.80;94.30;;;;;;4997428;28;20521;-94
2023/05/05 11:01:42;;;;;;;1.67;1.50;;;20.80;94.30;;;;;;4993626;28;20025;-94
2023/05/05 11:04:24;;;;;;;2.20;1.55;;;20.80;94.30;;;;;;5017056;28;20022;-94
2023/05/05 11:07:08;;;;;;;3.22;1.67;;;20.80;94.30;;;;;;5003218;28;20030;-94
2023/05/05 11:09:41;;;;;;;3.25;1.83;;;20.90;94.40;;;;;;4996464;28;20040;-95
2023/05/05 11:12:12;;;;;;;2.83;1.75;;;20.80;94.40;;;;;;5003880;28;20073;-93
2023/05/05 11:14:48;;;;;;;4.60;2.15;;;20.80;94.50;;;;;;5013274;28;20060;-93
2023/05/05 11:17:46;;;;;;;2.95;1.60;;;20.80;94.60;;;;;;5038559;28;20026;-90
2023/05/05 11:20:12;;;;;;;3.33;1.73;;;20.70;94.70;;;;;;4998429;28;20046;-93
2023/05/05 11:23:06;;;;;;;2.30;1.70;;;20.70;94.90;;;;;;5014602;28;20017;-93
2023/05/05 11:25:35;;;;;;;3.70;1.75;;;20.60;95.10;;;;;;5030138;28;20176;-95
2023/05/05 11:28:05;;;;;;;3.47;2.03;;;20.60;95.30;;;;;;5033754;28;20029;-92
2023/05/05 11:30:55;;;;;;;3.65;2.45;;;20.50;95.50;;;;;;5022712;28;20063;-94
2023/05/05 11:33:24;;;;;;;3.15;2.08;;;20.40;95.80;;;;;;5021816;28;20532;-93
2023/05/05 11:36:03;;;;;;;4.00;2.30;;;20.40;96.00;;;;;;5017066;28;20014;-94
2023/05/05 11:38:35;;;;;;;4.05;2.30;;;20.40;96.10;;;;;;5001762;28;20022;-94
2023/05/05 11:41:36;;;;;;;2.42;1.02;;;20.30;96.30;;;;;;5001758;28;20492;-92
2023/05/05 11:44:12;;;;;;;2.75;0.65;;;20.00;95.70;;;;;;5002393;28;20026;-94
2023/05/05 11:46:50;;;;;;;2.90;0.50;;;19.50;95.60;;;;;;4999211;28;20030;-93
2023/05/05 11:49:37;;;;;;;1.50;0.52;;;19.00;95.90;;;;;;4998167;28;20129;-92
2023/05/05 11:52:06;;;;;;;3.88;0.60;;;18.60;96.40;;;;;;4994734;28;20053;-92
2023/05/05 11:54:37;;;;;;;3.00;0.70;;;18.30;96.70;;;;;;5001140;28;20049;-93
2023/05/05 11:57:06;;;;;;;1.38;0.65;;;18.00;97.20;;;;;;5011616;28;20022;-93
2023/05/05 11:59:33;;;;;;;2.33;0.77;;;17.70;97.60;;;;;;4981596;28;20209;-93
2023/05/05 12:02:02;;;;;;;1.35;0.60;;;17.50;98.00;;;;;;4981690;28;20041;-93
2023/05/05 12:04:32;;;;;;;2.75;0.52;;;17.30;98.70;;;;;;4982843;28;20029;-93
2023/05/05 12:07:01;;;;;;;0.60;0.40;;;17.10;98.70;;;;;;5001721;28;20446;-92
2023/05/05 12:09:26;;;;;;;1.58;0.52;;;17.00;99.00;;;;;;5001091;28;20458;-93
2023/05/05 12:11:57;;;;;;;1.13;0.60;;;16.80;99.30;;;;;;5000910;28;20049;-93
2023/05/05 12:14:24;;;;;;;1.55;0.57;;;16.70;99.60;;;;;;4992761;28;20030;-90
2023/05/05 12:17:05;;;;;;;4.15;0.47;;;16.70;99.80;;;;;;4981853;28;20023;-93
2023/05/05 12:19:34;;;;;;;1.13;0.43;;;16.60;99.90;;;;;;4998580;28;20039;-93
2023/05/05 12:22:04;;;;;;;0.85;0.52;;;16.50;99.90;;;;;;4985675;28;20022;-91
2023/05/05 12:24:30;;;;;;;1.50;0.63;;;16.50;99.90;;;;;;4995068;28;20042;-92
2023/05/05 12:27:09;;;;;;;1.08;0.60;;;16.50;99.90;;;;;;4983348;28;20027;-91
2023/05/05 12:29:35;;;;;;;2.67;0.80;;;16.50;99.90;;;;;;4983099;28;20033;-91
2023/05/05 12:32:01;;;;;;;1.75;0.80;;;16.50;99.90;;;;;;4996592;28;20027;-92
2023/05/05 12:34:27;;;;;;;0.60;0.55;;;16.50;99.90;;;;;;4996732;28;20051;-90
2023/05/05 12:36:53;;;;;;;0.98;0.70;;;16.50;99.90;;;;;;4996372;28;20466;-93
2023/05/05 12:39:19;;;;;;;1.30;0.60;;;16.50;99.90;;;;;;4996264;28;20030;-91
2023/05/05 12:41:48;;;;;;;1.75;0.60;;;16.60;99.90;;;;;;4999155;28;20029;-91
2023/05/05 12:44:13;;;;;;;1.48;0.70;;;16.60;99.90;;;;;;5015514;28;20018;-91
2023/05/05 12:46:46;;;;;;;2.58;1.00;;;16.60;99.90;;;;;;5016383;28;20028;-92
2023/05/05 12:49:12;;;;;;;0.80;0.50;;;16.60;99.90;;;;;;4999622;28;20038;-93
2023/05/05 12:51:55;;;;;;;1.90;0.93;;;16.60;99.90;;;;;;4999220;28;20048;-91
2023/05/05 12:54:24;;;;;;;2.45;0.88;;;16.60;99.90;;;;;;4998281;28;20497;-91
2023/05/05 12:56:50;;;;;;;1.00;0.70;;;16.50;99.90;;;;;;4987670;28;20057;-93